Llica d'Amunt, Spain
Current Conditions -  °F | °C
As of 5:00 PM on Thursday 29 Jan 2015 (Local Time) from LELL Reporting Station
Clear Clear  
Wind Chill: 15°   Ceiling: Unl
Heat Index: 15°   Visibility: 6mi
Dew Point:   Wind: 13mph
Humidity: 36%   Direction: 270°W
Pressure: 29.53"   Gusts: 24mph
Location:  41.62°N, 2.23°E
Report Text: LELL 291600Z 27011G21KT 210V320 CAVOK 15/00 Q1000
Loading
Personal Weather Stations






























Interactive Weather Map New forecast layout! Learn more

10-Day Weather Forecast

Advertisements
Track Severe Weather on mobile